sensor_id;sensor_type;location;lat;lon;timestamp;P1;durP1;ratioP1;P2;durP2;ratioP2
2542;SDS011;1116;51.502;7.414;2023-04-15T00:01:21;11.97;;;9.77;;
2542;SDS011;1116;51.502;7.414;2023-04-15T00:03:53;11.20;;;9.37;;
2542;SDS011;1116;51.502;7.414;2023-04-15T00:06:26;10.57;;;9.47;;
2542;SDS011;1116;51.502;7.414;2023-04-15T00:08:57;13.47;;;10.87;;
2542;SDS011;1116;51.502;7.414;2023-04-15T00:11:29;12.10;;;10.90;;
2542;SDS011;1116;51.502;7.414;2023-04-15T00:14:02;18.73;;;12.30;;
2542;SDS011;1116;51.502;7.414;2023-04-15T00:16:34;15.47;;;11.87;;
2542;SDS011;1116;51.502;7.414;2023-04-15T00:19:07;18.80;;;12.80;;
2542;SDS011;1116;51.502;7.414;2023-04-15T00:21:41;18.20;;;12.70;;
2542;SDS011;1116;51.502;7.414;2023-04-15T00:24:12;15.20;;;12.63;;
2542;SDS011;1116;51.502;7.414;2023-04-15T00:26:43;18.77;;;13.50;;
2542;SDS011;1116;51.502;7.414;2023-04-15T00:29:17;13.70;;;12.30;;
2542;SDS011;1116;51.502;7.414;2023-04-15T00:31:48;14.27;;;11.47;;
2542;SDS011;1116;51.502;7.414;2023-04-15T00:34:19;17.00;;;12.70;;
2542;SDS011;1116;51.502;7.414;2023-04-15T00:36:50;14.97;;;13.30;;
2542;SDS011;1116;51.502;7.414;2023-04-15T00:39:21;14.30;;;12.20;;
2542;SDS011;1116;51.502;7.414;2023-04-15T00:41:52;16.67;;;13.37;;
2542;SDS011;1116;51.502;7.414;2023-04-15T00:44:26;16.97;;;13.53;;
2542;SDS011;1116;51.502;7.414;2023-04-15T00:47:00;18.87;;;12.57;;
2542;SDS011;1116;51.502;7.414;2023-04-15T00:49:31;15.63;;;12.57;;
2542;SDS011;1116;51.502;7.414;2023-04-15T00:52:02;14.70;;;12.00;;
2542;SDS011;1116;51.502;7.414;2023-04-15T00:54:33;14.57;;;11.60;;
2542;SDS011;1116;51.502;7.414;2023-04-15T00:57:05;16.23;;;12.67;;
2542;SDS011;1116;51.502;7.414;2023-04-15T00:59:38;16.90;;;11.73;;
2542;SDS011;1116;51.502;7.414;2023-04-15T01:02:09;14.37;;;11.10;;
2542;SDS011;1116;51.502;7.414;2023-04-15T01:04:40;11.20;;;10.10;;
2542;SDS011;1116;51.502;7.414;2023-04-15T01:07:12;13.17;;;11.80;;
2542;SDS011;1116;51.502;7.414;2023-04-15T01:09:44;16.27;;;11.20;;
2542;SDS011;1116;51.502;7.414;2023-04-15T01:12:15;12.77;;;10.33;;
2542;SDS011;1116;51.502;7.414;2023-04-15T01:14:49;15.13;;;11.40;;
2542;SDS011;1116;51.502;7.414;2023-04-15T01:17:23;13.73;;;11.00;;
2542;SDS011;1116;51.502;7.414;2023-04-15T01:19:54;12.97;;;10.40;;
2542;SDS011;1116;51.502;7.414;2023-04-15T01:22:26;12.87;;;11.20;;
2542;SDS011;1116;51.502;7.414;2023-04-15T01:24:59;14.53;;;11.60;;
2542;SDS011;1116;51.502;7.414;2023-04-15T01:27:37;13.20;;;11.33;;
2542;SDS011;1116;51.502;7.414;2023-04-15T01:30:10;12.20;;;10.80;;
2542;SDS011;1116;51.502;7.414;2023-04-15T01:32:42;12.13;;;10.70;;
2542;SDS011;1116;51.502;7.414;2023-04-15T01:35:13;12.20;;;10.80;;
2542;SDS011;1116;51.502;7.414;2023-04-15T01:37:44;12.10;;;10.90;;
2542;SDS011;1116;51.502;7.414;2023-04-15T01:40:16;12.17;;;10.17;;
2542;SDS011;1116;51.502;7.414;2023-04-15T01:42:50;13.60;;;11.20;;
2542;SDS011;1116;51.502;7.414;2023-04-15T01:45:22;13.90;;;10.93;;
2542;SDS011;1116;51.502;7.414;2023-04-15T01:47:53;12.00;;;10.70;;
2542;SDS011;1116;51.502;7.414;2023-04-15T01:50:24;14.17;;;11.07;;
2542;SDS011;1116;51.502;7.414;2023-04-15T01:52:55;12.27;;;10.77;;
2542;SDS011;1116;51.502;7.414;2023-04-15T01:55:26;12.60;;;10.83;;
2542;SDS011;1116;51.502;7.414;2023-04-15T01:57:59;11.97;;;10.77;;
2542;SDS011;1116;51.502;7.414;2023-04-15T02:00:31;14.67;;;11.47;;
2542;SDS011;1116;51.502;7.414;2023-04-15T02:03:04;12.80;;;11.50;;
2542;SDS011;1116;51.502;7.414;2023-04-15T02:05:36;17.67;;;13.63;;
2542;SDS011;1116;51.502;7.414;2023-04-15T02:08:07;14.03;;;12.43;;
2542;SDS011;1116;51.502;7.414;2023-04-15T02:10:38;13.07;;;11.47;;
2542;SDS011;1116;51.502;7.414;2023-04-15T02:13:12;16.60;;;14.40;;
2542;SDS011;1116;51.502;7.414;2023-04-15T02:15:45;13.93;;;12.53;;
2542;SDS011;1116;51.502;7.414;2023-04-15T02:18:17;22.10;;;12.93;;
2542;SDS011;1116;51.502;7.414;2023-04-15T02:20:50;13.30;;;12.03;;
2542;SDS011;1116;51.502;7.414;2023-04-15T02:23:23;15.23;;;12.20;;
2542;SDS011;1116;51.502;7.414;2023-04-15T02:25:54;17.80;;;12.60;;
2542;SDS011;1116;51.502;7.414;2023-04-15T02:28:28;15.30;;;12.97;;
2542;SDS011;1116;51.502;7.414;2023-04-15T02:30:59;15.53;;;13.63;;
2542;SDS011;1116;51.502;7.414;2023-04-15T02:33:34;16.27;;;13.40;;
2542;SDS011;1116;51.502;7.414;2023-04-15T02:36:05;14.90;;;13.40;;
2542;SDS011;1116;51.502;7.414;2023-04-15T02:38:39;14.30;;;12.03;;
2542;SDS011;1116;51.502;7.414;2023-04-15T02:41:10;14.20;;;12.50;;
2542;SDS011;1116;51.502;7.414;2023-04-15T02:43:44;15.43;;;13.50;;
2542;SDS011;1116;51.502;7.414;2023-04-15T02:46:15;17.67;;;12.67;;
2542;SDS011;1116;51.502;7.414;2023-04-15T02:48:49;14.17;;;12.67;;
2542;SDS011;1116;51.502;7.414;2023-04-15T02:51:20;15.90;;;12.03;;
2542;SDS011;1116;51.502;7.414;2023-04-15T02:53:52;15.00;;;12.70;;
2542;SDS011;1116;51.502;7.414;2023-04-15T02:56:23;15.70;;;13.97;;
2542;SDS011;1116;51.502;7.414;2023-04-15T02:58:57;17.10;;;12.97;;
2542;SDS011;1116;51.502;7.414;2023-04-15T03:01:28;18.23;;;13.80;;
2542;SDS011;1116;51.502;7.414;2023-04-15T03:03:59;13.90;;;12.40;;
2542;SDS011;1116;51.502;7.414;2023-04-15T03:06:30;15.53;;;12.63;;
2542;SDS011;1116;51.502;7.414;2023-04-15T03:09:01;15.87;;;11.97;;
2542;SDS011;1116;51.502;7.414;2023-04-15T03:11:32;13.40;;;12.00;;
2542;SDS011;1116;51.502;7.414;2023-04-15T03:14:09;14.03;;;12.70;;
2542;SDS011;1116;51.502;7.414;2023-04-15T03:16:40;15.80;;;13.70;;
2542;SDS011;1116;51.502;7.414;2023-04-15T03:19:11;16.93;;;13.37;;
2542;SDS011;1116;51.502;7.414;2023-04-15T03:21:43;18.80;;;13.87;;
2542;SDS011;1116;51.502;7.414;2023-04-15T03:24:14;14.13;;;12.70;;
2542;SDS011;1116;51.502;7.414;2023-04-15T03:26:45;14.47;;;12.97;;
2542;SDS011;1116;51.502;7.414;2023-04-15T03:29:20;15.17;;;13.07;;
2542;SDS011;1116;51.502;7.414;2023-04-15T03:31:52;17.83;;;14.00;;
2542;SDS011;1116;51.502;7.414;2023-04-15T03:34:23;15.77;;;13.80;;
2542;SDS011;1116;51.502;7.414;2023-04-15T03:36:54;17.83;;;13.63;;
2542;SDS011;1116;51.502;7.414;2023-04-15T03:39:25;18.23;;;14.67;;
2542;SDS011;1116;51.502;7.414;2023-04-15T03:41:57;14.30;;;12.57;;
2542;SDS011;1116;51.502;7.414;2023-04-15T03:44:32;14.53;;;12.63;;
2542;SDS011;1116;51.502;7.414;2023-04-15T03:47:03;14.83;;;12.70;;
2542;SDS011;1116;51.502;7.414;2023-04-15T03:49:34;14.13;;;12.60;;
2542;SDS011;1116;51.502;7.414;2023-04-15T03:52:05;15.43;;;12.00;;
2542;SDS011;1116;51.502;7.414;2023-04-15T03:54:37;14.13;;;11.53;;
2542;SDS011;1116;51.502;7.414;2023-04-15T03:57:08;13.43;;;12.03;;
2542;SDS011;1116;51.502;7.414;2023-04-15T03:59:42;15.83;;;12.70;;
2542;SDS011;1116;51.502;7.414;2023-04-15T04:02:13;13.50;;;12.10;;
2542;SDS011;1116;51.502;7.414;2023-04-15T04:04:44;13.73;;;12.33;;
2542;SDS011;1116;51.502;7.414;2023-04-15T04:07:17;13.90;;;12.43;;
2542;SDS011;1116;51.502;7.414;2023-04-15T04:09:48;14.77;;;13.20;;
2542;SDS011;1116;51.502;7.414;2023-04-15T04:12:21;15.70;;;13.30;;
2542;SDS011;1116;51.502;7.414;2023-04-15T04:14:54;16.87;;;13.43;;
2542;SDS011;1116;51.502;7.414;2023-04-15T04:17:25;13.77;;;12.33;;
2542;SDS011;1116;51.502;7.414;2023-04-15T04:19:56;13.90;;;12.30;;
2542;SDS011;1116;51.502;7.414;2023-04-15T04:22:27;15.70;;;13.20;;
2542;SDS011;1116;51.502;7.414;2023-04-15T04:24:58;14.57;;;12.97;;
2542;SDS011;1116;51.502;7.414;2023-04-15T04:27:32;15.57;;;13.10;;
2542;SDS011;1116;51.502;7.414;2023-04-15T04:30:06;15.27;;;13.43;;
2542;SDS011;1116;51.502;7.414;2023-04-15T04:32:37;18.80;;;13.57;;
2542;SDS011;1116;51.502;7.414;2023-04-15T04:35:08;14.97;;;13.13;;
2542;SDS011;1116;51.502;7.414;2023-04-15T04:37:39;15.07;;;13.47;;
2542;SDS011;1116;51.502;7.414;2023-04-15T04:40:11;16.50;;;13.57;;
2542;SDS011;1116;51.502;7.414;2023-04-15T04:42:43;15.20;;;12.90;;
2542;SDS011;1116;51.502;7.414;2023-04-15T04:45:17;15.43;;;12.90;;
2542;SDS011;1116;51.502;7.414;2023-04-15T04:47:48;12.90;;;11.60;;
2542;SDS011;1116;51.502;7.414;2023-04-15T04:50:19;13.07;;;11.60;;
2542;SDS011;1116;51.502;7.414;2023-04-15T04:52:55;13.00;;;11.43;;
2542;SDS011;1116;51.502;7.414;2023-04-15T04:55:26;14.30;;;12.73;;
2542;SDS011;1116;51.502;7.414;2023-04-15T04:57:58;17.57;;;13.00;;
2542;SDS011;1116;51.502;7.414;2023-04-15T05:00:32;14.70;;;11.33;;
2542;SDS011;1116;51.502;7.414;2023-04-15T05:03:04;15.20;;;13.30;;
2542;SDS011;1116;51.502;7.414;2023-04-15T05:05:35;14.10;;;12.60;;
2542;SDS011;1116;51.502;7.414;2023-04-15T05:08:07;14.70;;;12.17;;
2542;SDS011;1116;51.502;7.414;2023-04-15T05:10:44;15.30;;;12.20;;
2542;SDS011;1116;51.502;7.414;2023-04-15T05:13:16;15.27;;;13.57;;
2542;SDS011;1116;51.502;7.414;2023-04-15T05:15:51;14.80;;;12.27;;
2542;SDS011;1116;51.502;7.414;2023-04-15T05:18:22;17.87;;;13.57;;
2542;SDS011;1116;51.502;7.414;2023-04-15T05:20:53;15.77;;;13.83;;
2542;SDS011;1116;51.502;7.414;2023-04-15T05:23:24;16.63;;;14.13;;
2542;SDS011;1116;51.502;7.414;2023-04-15T05:25:58;17.67;;;13.03;;
2542;SDS011;1116;51.502;7.414;2023-04-15T05:28:29;15.60;;;13.47;;
2542;SDS011;1116;51.502;7.414;2023-04-15T05:31:02;16.03;;;13.73;;
2542;SDS011;1116;51.502;7.414;2023-04-15T05:33:33;17.23;;;15.30;;
2542;SDS011;1116;51.502;7.414;2023-04-15T05:36:05;16.40;;;12.87;;
2542;SDS011;1116;51.502;7.414;2023-04-15T05:38:36;17.83;;;14.97;;
2542;SDS011;1116;51.502;7.414;2023-04-15T05:41:07;21.23;;;15.90;;
2542;SDS011;1116;51.502;7.414;2023-04-15T05:43:38;18.87;;;16.27;;
2542;SDS011;1116;51.502;7.414;2023-04-15T05:46:12;17.07;;;15.20;;
2542;SDS011;1116;51.502;7.414;2023-04-15T05:48:45;19.83;;;17.73;;
2542;SDS011;1116;51.502;7.414;2023-04-15T05:51:16;18.37;;;16.00;;
2542;SDS011;1116;51.502;7.414;2023-04-15T05:53:47;18.60;;;16.67;;
2542;SDS011;1116;51.502;7.414;2023-04-15T05:56:21;19.00;;;16.27;;
2542;SDS011;1116;51.502;7.414;2023-04-15T05:58:53;18.90;;;16.73;;
2542;SDS011;1116;51.502;7.414;2023-04-15T06:01:26;16.43;;;14.50;;
2542;SDS011;1116;51.502;7.414;2023-04-15T06:03:57;19.77;;;16.83;;
2542;SDS011;1116;51.502;7.414;2023-04-15T06:06:29;17.10;;;15.23;;
2542;SDS011;1116;51.502;7.414;2023-04-15T06:09:01;19.50;;;15.80;;
2542;SDS011;1116;51.502;7.414;2023-04-15T06:11:32;16.40;;;14.33;;
2542;SDS011;1116;51.502;7.414;2023-04-15T06:14:03;17.93;;;14.40;;
2542;SDS011;1116;51.502;7.414;2023-04-15T06:16:36;17.00;;;14.30;;
2542;SDS011;1116;51.502;7.414;2023-04-15T06:19:07;18.80;;;14.80;;
2542;SDS011;1116;51.502;7.414;2023-04-15T06:21:39;16.40;;;14.60;;
2542;SDS011;1116;51.502;7.414;2023-04-15T06:24:10;16.77;;;14.20;;
2542;SDS011;1116;51.502;7.414;2023-04-15T06:26:41;15.93;;;14.00;;
2542;SDS011;1116;51.502;7.414;2023-04-15T06:29:15;18.70;;;14.57;;
2542;SDS011;1116;51.502;7.414;2023-04-15T06:31:49;17.93;;;14.63;;
2542;SDS011;1116;51.502;7.414;2023-04-15T06:34:20;15.97;;;14.27;;
2542;SDS011;1116;51.502;7.414;2023-04-15T06:36:52;16.27;;;14.10;;
2542;SDS011;1116;51.502;7.414;2023-04-15T06:39:24;16.00;;;14.10;;
2542;SDS011;1116;51.502;7.414;2023-04-15T06:41:54;17.13;;;15.30;;
2542;SDS011;1116;51.502;7.414;2023-04-15T06:44:25;19.37;;;16.00;;
2542;SDS011;1116;51.502;7.414;2023-04-15T06:47:02;17.40;;;14.13;;
2542;SDS011;1116;51.502;7.414;2023-04-15T06:49:36;16.17;;;14.43;;
2542;SDS011;1116;51.502;7.414;2023-04-15T06:52:07;17.50;;;15.37;;
2542;SDS011;1116;51.502;7.414;2023-04-15T06:54:39;17.60;;;15.20;;
2542;SDS011;1116;51.502;7.414;2023-04-15T06:57:10;16.70;;;14.90;;
2542;SDS011;1116;51.502;7.414;2023-04-15T06:59:41;18.53;;;14.30;;
2542;SDS011;1116;51.502;7.414;2023-04-15T07:02:15;15.67;;;13.97;;
2542;SDS011;1116;51.502;7.414;2023-04-15T07:04:46;16.00;;;13.77;;
2542;SDS011;1116;51.502;7.414;2023-04-15T07:07:17;15.67;;;13.90;;
2542;SDS011;1116;51.502;7.414;2023-04-15T07:09:48;16.37;;;14.30;;
2542;SDS011;1116;51.502;7.414;2023-04-15T07:12:20;16.30;;;14.60;;
2542;SDS011;1116;51.502;7.414;2023-04-15T07:14:51;16.67;;;13.97;;
2542;SDS011;1116;51.502;7.414;2023-04-15T07:17:24;15.37;;;13.77;;
2542;SDS011;1116;51.502;7.414;2023-04-15T07:19:55;17.90;;;14.73;;
2542;SDS011;1116;51.502;7.414;2023-04-15T07:22:26;15.80;;;13.97;;
2542;SDS011;1116;51.502;7.414;2023-04-15T07:24:57;17.30;;;14.30;;
2542;SDS011;1116;51.502;7.414;2023-04-15T07:27:28;17.10;;;14.30;;
2542;SDS011;1116;51.502;7.414;2023-04-15T07:29:59;16.07;;;13.50;;
2542;SDS011;1116;51.502;7.414;2023-04-15T07:32:38;14.43;;;13.00;;
2542;SDS011;1116;51.502;7.414;2023-04-15T07:35:09;17.77;;;14.63;;
2542;SDS011;1116;51.502;7.414;2023-04-15T07:37:41;15.60;;;13.80;;
2542;SDS011;1116;51.502;7.414;2023-04-15T07:40:12;15.03;;;13.43;;
2542;SDS011;1116;51.502;7.414;2023-04-15T07:42:44;15.80;;;13.00;;
2542;SDS011;1116;51.502;7.414;2023-04-15T07:45:16;14.57;;;12.90;;
2542;SDS011;1116;51.502;7.414;2023-04-15T07:47:51;14.67;;;12.67;;
2542;SDS011;1116;51.502;7.414;2023-04-15T07:50:23;14.70;;;13.20;;
2542;SDS011;1116;51.502;7.414;2023-04-15T07:52:54;15.67;;;13.93;;
2542;SDS011;1116;51.502;7.414;2023-04-15T07:55:25;15.20;;;12.90;;
2542;SDS011;1116;51.502;7.414;2023-04-15T07:57:57;14.73;;;12.57;;
2542;SDS011;1116;51.502;7.414;2023-04-15T08:00:28;12.73;;;11.43;;
2542;SDS011;1116;51.502;7.414;2023-04-15T08:03:04;12.13;;;10.93;;
2542;SDS011;1116;51.502;7.414;2023-04-15T08:05:36;12.87;;;11.47;;
2542;SDS011;1116;51.502;7.414;2023-04-15T08:08:07;15.30;;;12.03;;
2542;SDS011;1116;51.502;7.414;2023-04-15T08:10:38;11.77;;;10.57;;
2542;SDS011;1116;51.502;7.414;2023-04-15T08:13:09;12.57;;;10.63;;
2542;SDS011;1116;51.502;7.414;2023-04-15T08:15:40;12.33;;;11.00;;
2542;SDS011;1116;51.502;7.414;2023-04-15T08:18:14;10.63;;;9.57;;
2542;SDS011;1116;51.502;7.414;2023-04-15T08:20:44;11.23;;;9.40;;
2542;SDS011;1116;51.502;7.414;2023-04-15T08:23:18;11.10;;;9.53;;
2542;SDS011;1116;51.502;7.414;2023-04-15T08:25:50;8.73;;;7.93;;
2542;SDS011;1116;51.502;7.414;2023-04-15T08:28:21;9.37;;;8.47;;
2542;SDS011;1116;51.502;7.414;2023-04-15T08:30:52;8.93;;;8.03;;
2542;SDS011;1116;51.502;7.414;2023-04-15T08:33:25;8.90;;;8.00;;
2542;SDS011;1116;51.502;7.414;2023-04-15T08:35:56;10.83;;;8.50;;
2542;SDS011;1116;51.502;7.414;2023-04-15T08:38:30;11.00;;;9.20;;
2542;SDS011;1116;51.502;7.414;2023-04-15T08:41:02;9.37;;;7.70;;
2542;SDS011;1116;51.502;7.414;2023-04-15T08:43:44;9.00;;;7.87;;
2542;SDS011;1116;51.502;7.414;2023-04-15T08:46:21;9.27;;;7.90;;
2542;SDS011;1116;51.502;7.414;2023-04-15T08:48:56;9.07;;;8.13;;
2542;SDS011;1116;51.502;7.414;2023-04-15T08:51:28;8.80;;;7.90;;
2542;SDS011;1116;51.502;7.414;2023-04-15T08:53:59;9.00;;;8.10;;
2542;SDS011;1116;51.502;7.414;2023-04-15T08:56:31;9.00;;;8.20;;
2542;SDS011;1116;51.502;7.414;2023-04-15T08:59:03;9.43;;;8.53;;
2542;SDS011;1116;51.502;7.414;2023-04-15T09:01:35;7.97;;;7.17;;
2542;SDS011;1116;51.502;7.414;2023-04-15T09:04:10;9.27;;;8.30;;
2542;SDS011;1116;51.502;7.414;2023-04-15T09:06:41;9.00;;;8.10;;
2542;SDS011;1116;51.502;7.414;2023-04-15T09:09:12;8.80;;;8.00;;
2542;SDS011;1116;51.502;7.414;2023-04-15T09:11:43;8.90;;;8.00;;
2542;SDS011;1116;51.502;7.414;2023-04-15T09:14:16;8.97;;;8.10;;
2542;SDS011;1116;51.502;7.414;2023-04-15T09:16:56;12.07;;;8.07;;
2542;SDS011;1116;51.502;7.414;2023-04-15T09:19:34;10.60;;;7.70;;
2542;SDS011;1116;51.502;7.414;2023-04-15T09:22:05;10.10;;;8.47;;
2542;SDS011;1116;51.502;7.414;2023-04-15T09:24:39;9.20;;;8.20;;
2542;SDS011;1116;51.502;7.414;2023-04-15T09:27:15;9.43;;;8.53;;
2542;SDS011;1116;51.502;7.414;2023-04-15T09:29:49;9.47;;;8.47;;
2542;SDS011;1116;51.502;7.414;2023-04-15T09:32:20;9.50;;;8.57;;
2542;SDS011;1116;51.502;7.414;2023-04-15T09:34:54;11.30;;;9.20;;
2542;SDS011;1116;51.502;7.414;2023-04-15T09:37:33;9.70;;;8.80;;
2542;SDS011;1116;51.502;7.414;2023-04-15T09:40:05;9.30;;;8.40;;
2542;SDS011;1116;51.502;7.414;2023-04-15T09:42:55;11.10;;;10.00;;
2542;SDS011;1116;51.502;7.414;2023-04-15T09:45:27;10.07;;;9.07;;
2542;SDS011;1116;51.502;7.414;2023-04-15T09:47:58;10.17;;;9.17;;
2542;SDS011;1116;51.502;7.414;2023-04-15T09:50:47;10.90;;;9.80;;
2542;SDS011;1116;51.502;7.414;2023-04-15T09:53:20;10.50;;;8.47;;
2542;SDS011;1116;51.502;7.414;2023-04-15T09:55:53;11.10;;;9.60;;
2542;SDS011;1116;51.502;7.414;2023-04-15T09:58:25;10.57;;;9.57;;
2542;SDS011;1116;51.502;7.414;2023-04-15T10:01:16;9.50;;;8.50;;
2542;SDS011;1116;51.502;7.414;2023-04-15T10:03:47;9.43;;;8.53;;
2542;SDS011;1116;51.502;7.414;2023-04-15T10:06:26;9.93;;;8.93;;
2542;SDS011;1116;51.502;7.414;2023-04-15T10:08:58;9.90;;;8.90;;
2542;SDS011;1116;51.502;7.414;2023-04-15T10:11:32;8.60;;;7.80;;
2542;SDS011;1116;51.502;7.414;2023-04-15T10:14:04;9.20;;;8.17;;
2542;SDS011;1116;51.502;7.414;2023-04-15T10:16:37;10.33;;;8.03;;
2542;SDS011;1116;51.502;7.414;2023-04-15T10:19:15;8.53;;;7.70;;
2542;SDS011;1116;51.502;7.414;2023-04-15T10:21:53;7.63;;;6.93;;
2542;SDS011;1116;51.502;7.414;2023-04-15T10:24:25;8.90;;;8.00;;
2542;SDS011;1116;51.502;7.414;2023-04-15T10:27:01;8.80;;;7.90;;
2542;SDS011;1116;51.502;7.414;2023-04-15T10:29:34;8.93;;;8.03;;
2542;SDS011;1116;51.502;7.414;2023-04-15T10:32:05;9.47;;;8.30;;
2542;SDS011;1116;51.502;7.414;2023-04-15T10:34:37;8.63;;;7.60;;
2542;SDS011;1116;51.502;7.414;2023-04-15T10:37:11;8.43;;;7.47;;
2542;SDS011;1116;51.502;7.414;2023-04-15T10:39:42;7.87;;;7.10;;
2542;SDS011;1116;51.502;7.414;2023-04-15T10:42:14;7.93;;;7.13;;
2542;SDS011;1116;51.502;7.414;2023-04-15T10:44:47;7.90;;;7.13;;
2542;SDS011;1116;51.502;7.414;2023-04-15T10:47:20;8.07;;;7.13;;
2542;SDS011;1116;51.502;7.414;2023-04-15T10:49:56;7.83;;;7.03;;
2542;SDS011;1116;51.502;7.414;2023-04-15T10:52:33;7.87;;;7.07;;
2542;SDS011;1116;51.502;7.414;2023-04-15T10:55:12;8.33;;;7.50;;
2542;SDS011;1116;51.502;7.414;2023-04-15T10:57:44;7.80;;;7.00;;
2542;SDS011;1116;51.502;7.414;2023-04-15T11:00:16;6.83;;;6.23;;
2542;SDS011;1116;51.502;7.414;2023-04-15T11:02:51;7.37;;;6.57;;
2542;SDS011;1116;51.502;7.414;2023-04-15T11:05:48;7.30;;;6.60;;
2542;SDS011;1116;51.502;7.414;2023-04-15T11:08:51;8.10;;;7.03;;
2542;SDS011;1116;51.502;7.414;2023-04-15T11:14:24;7.33;;;6.63;;
2542;SDS011;1116;51.502;7.414;2023-04-15T11:16:55;8.57;;;7.67;;
2542;SDS011;1116;51.502;7.414;2023-04-15T11:19:34;7.77;;;6.23;;
2542;SDS011;1116;51.502;7.414;2023-04-15T11:22:06;7.37;;;6.67;;
2542;SDS011;1116;51.502;7.414;2023-04-15T11:24:48;6.60;;;6.00;;
2542;SDS011;1116;51.502;7.414;2023-04-15T11:27:20;7.67;;;6.90;;
2542;SDS011;1116;51.502;7.414;2023-04-15T11:29:51;7.93;;;7.13;;
2542;SDS011;1116;51.502;7.414;2023-04-15T11:32:22;7.97;;;7.17;;
2542;SDS011;1116;51.502;7.414;2023-04-15T11:34:53;7.23;;;6.43;;
2542;SDS011;1116;51.502;7.414;2023-04-15T11:37:28;7.73;;;6.97;;
2542;SDS011;1116;51.502;7.414;2023-04-15T11:40:04;7.93;;;6.80;;
2542;SDS011;1116;51.502;7.414;2023-04-15T11:42:37;7.47;;;6.60;;
2542;SDS011;1116;51.502;7.414;2023-04-15T11:45:16;7.30;;;6.60;;
2542;SDS011;1116;51.502;7.414;2023-04-15T11:47:47;7.80;;;7.00;;
2542;SDS011;1116;51.502;7.414;2023-04-15T11:50:19;8.40;;;7.00;;
2542;SDS011;1116;51.502;7.414;2023-04-15T11:52:51;7.57;;;6.77;;
2542;SDS011;1116;51.502;7.414;2023-04-15T11:55:27;9.07;;;8.17;;
2542;SDS011;1116;51.502;7.414;2023-04-15T11:58:05;7.70;;;7.00;;
2542;SDS011;1116;51.502;7.414;2023-04-15T12:00:38;8.50;;;7.43;;
2542;SDS011;1116;51.502;7.414;2023-04-15T12:03:16;7.60;;;6.40;;
2542;SDS011;1116;51.502;7.414;2023-04-15T12:06:02;8.60;;;7.03;;
2542;SDS011;1116;51.502;7.414;2023-04-15T12:08:49;7.27;;;6.63;;
2542;SDS011;1116;51.502;7.414;2023-04-15T12:11:28;7.77;;;7.00;;
2542;SDS011;1116;51.502;7.414;2023-04-15T12:14:05;7.60;;;6.90;;
2542;SDS011;1116;51.502;7.414;2023-04-15T12:16:39;7.30;;;6.60;;
2542;SDS011;1116;51.502;7.414;2023-04-15T12:19:17;9.03;;;7.10;;
2542;SDS011;1116;51.502;7.414;2023-04-15T12:21:56;9.73;;;8.73;;
2542;SDS011;1116;51.502;7.414;2023-04-15T12:24:30;10.63;;;7.90;;
2542;SDS011;1116;51.502;7.414;2023-04-15T12:27:06;8.40;;;6.90;;
2542;SDS011;1116;51.502;7.414;2023-04-15T12:29:39;8.30;;;7.50;;
2542;SDS011;1116;51.502;7.414;2023-04-15T12:32:11;9.30;;;7.90;;
2542;SDS011;1116;51.502;7.414;2023-04-15T12:34:43;8.97;;;8.00;;
2542;SDS011;1116;51.502;7.414;2023-04-15T12:37:19;7.50;;;6.70;;
2542;SDS011;1116;51.502;7.414;2023-04-15T12:39:50;7.20;;;6.60;;
2542;SDS011;1116;51.502;7.414;2023-04-15T12:42:24;6.90;;;6.30;;
2542;SDS011;1116;51.502;7.414;2023-04-15T12:44:55;7.43;;;6.73;;
2542;SDS011;1116;51.502;7.414;2023-04-15T12:47:27;8.67;;;6.37;;
2542;SDS011;1116;51.502;7.414;2023-04-15T12:49:58;7.17;;;6.30;;
2542;SDS011;1116;51.502;7.414;2023-04-15T12:52:29;8.20;;;7.40;;
2542;SDS011;1116;51.502;7.414;2023-04-15T12:55:00;6.60;;;6.00;;
2542;SDS011;1116;51.502;7.414;2023-04-15T12:57:34;8.00;;;7.30;;
2542;SDS011;1116;51.502;7.414;2023-04-15T13:00:06;7.47;;;6.73;;
2542;SDS011;1116;51.502;7.414;2023-04-15T13:02:40;7.97;;;6.70;;
2542;SDS011;1116;51.502;7.414;2023-04-15T13:05:13;6.67;;;6.03;;
2542;SDS011;1116;51.502;7.414;2023-04-15T13:07:44;8.17;;;6.30;;
2542;SDS011;1116;51.502;7.414;2023-04-15T13:10:20;7.73;;;6.90;;
2542;SDS011;1116;51.502;7.414;2023-04-15T13:12:57;6.10;;;5.50;;
2542;SDS011;1116;51.502;7.414;2023-04-15T13:15:28;6.70;;;5.93;;
2542;SDS011;1116;51.502;7.414;2023-04-15T13:17:59;6.00;;;5.40;;
2542;SDS011;1116;51.502;7.414;2023-04-15T13:20:31;6.10;;;5.50;;
2542;SDS011;1116;51.502;7.414;2023-04-15T13:23:02;5.40;;;4.90;;
2542;SDS011;1116;51.502;7.414;2023-04-15T13:25:33;5.93;;;5.33;;
2542;SDS011;1116;51.502;7.414;2023-04-15T13:28:07;8.93;;;4.97;;
2542;SDS011;1116;51.502;7.414;2023-04-15T13:30:38;5.57;;;5.03;;
2542;SDS011;1116;51.502;7.414;2023-04-15T13:33:10;6.03;;;5.40;;
2542;SDS011;1116;51.502;7.414;2023-04-15T13:35:41;5.57;;;4.97;;
2542;SDS011;1116;51.502;7.414;2023-04-15T13:38:12;5.60;;;4.90;;
2542;SDS011;1116;51.502;7.414;2023-04-15T13:40:43;5.90;;;5.40;;
2542;SDS011;1116;51.502;7.414;2023-04-15T13:43:17;5.60;;;4.80;;
2542;SDS011;1116;51.502;7.414;2023-04-15T13:45:48;7.63;;;5.53;;
2542;SDS011;1116;51.502;7.414;2023-04-15T13:48:22;6.60;;;5.77;;
2542;SDS011;1116;51.502;7.414;2023-04-15T13:50:53;5.07;;;4.57;;
2542;SDS011;1116;51.502;7.414;2023-04-15T13:53:24;5.27;;;4.40;;
2542;SDS011;1116;51.502;7.414;2023-04-15T13:56:06;5.30;;;4.80;;
2542;SDS011;1116;51.502;7.414;2023-04-15T13:58:40;6.47;;;4.90;;
2542;SDS011;1116;51.502;7.414;2023-04-15T14:01:11;5.77;;;4.73;;
2542;SDS011;1116;51.502;7.414;2023-04-15T14:03:42;6.10;;;4.67;;
2542;SDS011;1116;51.502;7.414;2023-04-15T14:06:13;5.73;;;5.00;;
2542;SDS011;1116;51.502;7.414;2023-04-15T14:08:44;4.67;;;4.27;;
2542;SDS011;1116;51.502;7.414;2023-04-15T14:11:15;5.30;;;4.67;;
2542;SDS011;1116;51.502;7.414;2023-04-15T14:13:48;4.50;;;4.10;;
2542;SDS011;1116;51.502;7.414;2023-04-15T14:16:19;5.07;;;4.33;;
2542;SDS011;1116;51.502;7.414;2023-04-15T14:18:50;4.90;;;4.50;;
2542;SDS011;1116;51.502;7.414;2023-04-15T14:21:22;5.23;;;4.73;;
2542;SDS011;1116;51.502;7.414;2023-04-15T14:23:54;5.77;;;5.27;;
2542;SDS011;1116;51.502;7.414;2023-04-15T14:26:25;4.80;;;4.30;;
2542;SDS011;1116;51.502;7.414;2023-04-15T14:28:59;5.17;;;4.20;;
2542;SDS011;1116;51.502;7.414;2023-04-15T14:31:33;4.80;;;4.23;;
2542;SDS011;1116;51.502;7.414;2023-04-15T14:34:05;4.70;;;4.20;;
2542;SDS011;1116;51.502;7.414;2023-04-15T14:36:39;4.00;;;3.60;;
2542;SDS011;1116;51.502;7.414;2023-04-15T14:39:11;4.07;;;3.77;;
2542;SDS011;1116;51.502;7.414;2023-04-15T14:41:43;4.93;;;4.20;;
2542;SDS011;1116;51.502;7.414;2023-04-15T14:44:17;4.30;;;3.90;;
2542;SDS011;1116;51.502;7.414;2023-04-15T14:46:48;4.20;;;3.80;;
2542;SDS011;1116;51.502;7.414;2023-04-15T14:49:21;4.00;;;3.60;;
2542;SDS011;1116;51.502;7.414;2023-04-15T14:51:52;4.30;;;3.90;;
2542;SDS011;1116;51.502;7.414;2023-04-15T14:54:23;6.53;;;4.67;;
2542;SDS011;1116;51.502;7.414;2023-04-15T14:56:54;4.30;;;3.90;;
2542;SDS011;1116;51.502;7.414;2023-04-15T14:59:28;4.10;;;3.37;;
2542;SDS011;1116;51.502;7.414;2023-04-15T15:01:59;4.50;;;4.00;;
2542;SDS011;1116;51.502;7.414;2023-04-15T15:04:30;5.30;;;3.60;;
2542;SDS011;1116;51.502;7.414;2023-04-15T15:07:02;6.97;;;3.37;;
2542;SDS011;1116;51.502;7.414;2023-04-15T15:09:33;3.60;;;3.30;;
2542;SDS011;1116;51.502;7.414;2023-04-15T15:12:04;4.40;;;4.00;;
2542;SDS011;1116;51.502;7.414;2023-04-15T15:14:38;3.70;;;3.40;;
2542;SDS011;1116;51.502;7.414;2023-04-15T15:17:09;5.50;;;3.87;;
2542;SDS011;1116;51.502;7.414;2023-04-15T15:19:49;5.33;;;3.97;;
2542;SDS011;1116;51.502;7.414;2023-04-15T15:22:20;5.47;;;4.30;;
2542;SDS011;1116;51.502;7.414;2023-04-15T15:24:52;5.10;;;4.10;;
2542;SDS011;1116;51.502;7.414;2023-04-15T15:27:25;5.33;;;4.10;;
2542;SDS011;1116;51.502;7.414;2023-04-15T15:29:59;4.97;;;4.57;;
2542;SDS011;1116;51.502;7.414;2023-04-15T15:32:30;5.10;;;4.60;;
2542;SDS011;1116;51.502;7.414;2023-04-15T15:35:01;4.93;;;4.50;;
2542;SDS011;1116;51.502;7.414;2023-04-15T15:37:36;4.97;;;4.57;;